createdAt,value
2023-05-25T00:01:20.852Z,7.97
2023-05-25T00:03:49.637Z,7.77
2023-05-25T00:06:20.064Z,6.43
2023-05-25T00:08:48.762Z,7.40
2023-05-25T00:11:19.503Z,8.60
2023-05-25T00:13:47.453Z,9.77
2023-05-25T00:16:15.517Z,7.30
2023-05-25T00:18:43.535Z,6.63
2023-05-25T00:21:11.790Z,5.50
2023-05-25T00:23:41.146Z,7.33
2023-05-25T00:26:09.181Z,10.40
2023-05-25T00:28:37.306Z,6.53
2023-05-25T00:31:05.441Z,8.13
2023-05-25T00:33:33.445Z,6.30
2023-05-25T00:36:03.332Z,9.37
2023-05-25T00:38:31.335Z,5.83
2023-05-25T00:41:00.716Z,7.47
2023-05-25T00:43:28.736Z,5.27
2023-05-25T00:45:57.412Z,9.10
2023-05-25T00:48:26.594Z,9.50
2023-05-25T00:50:58.015Z,8.37
2023-05-25T00:53:26.081Z,6.33
2023-05-25T00:56:01.426Z,5.87
2023-05-25T00:58:34.269Z,6.37
2023-05-25T01:01:06.356Z,4.43
2023-05-25T01:03:38.272Z,6.87
2023-05-25T01:06:10.875Z,7.23
2023-05-25T01:08:41.432Z,4.57
2023-05-25T01:11:13.160Z,9.43
2023-05-25T01:13:44.076Z,7.17
2023-05-25T01:16:12.206Z,7.70
2023-05-25T01:18:41.877Z,6.20
2023-05-25T01:21:18.166Z,6.50
2023-05-25T01:23:52.072Z,8.83
2023-05-25T01:26:21.853Z,7.93
2023-05-25T01:28:54.012Z,6.73
2023-05-25T01:31:23.779Z,7.93
2023-05-25T01:33:53.204Z,9.20
2023-05-25T01:36:22.577Z,7.20
2023-05-25T01:38:51.111Z,7.97
2023-05-25T01:41:19.187Z,5.30
2023-05-25T01:43:47.363Z,7.67
2023-05-25T01:46:21.951Z,6.20
2023-05-25T01:48:55.977Z,7.13
2023-05-25T01:51:33.441Z,8.40
2023-05-25T01:54:08.541Z,8.03
2023-05-25T01:56:38.163Z,8.43
2023-05-25T01:59:10.060Z,6.40
2023-05-25T02:01:38.979Z,8.97
2023-05-25T02:04:07.351Z,11.13
2023-05-25T02:06:38.383Z,7.97
2023-05-25T02:09:06.450Z,8.43
2023-05-25T02:11:34.492Z,10.23
2023-05-25T02:14:02.476Z,9.63
2023-05-25T02:16:30.970Z,6.53
2023-05-25T02:18:59.186Z,7.77
2023-05-25T02:21:28.210Z,9.90
2023-05-25T02:23:58.444Z,5.57
2023-05-25T02:26:26.623Z,8.50
2023-05-25T02:28:54.653Z,8.77
2023-05-25T02:31:22.641Z,10.57
2023-05-25T02:33:50.795Z,7.90
2023-05-25T02:36:18.834Z,6.87
2023-05-25T02:38:49.751Z,9.83
2023-05-25T02:41:20.020Z,7.23
2023-05-25T02:43:48.110Z,7.93
2023-05-25T02:46:16.215Z,7.20
2023-05-25T02:48:44.299Z,10.97
2023-05-25T02:51:12.306Z,5.33
2023-05-25T02:53:40.502Z,7.77
2023-05-25T02:56:10.307Z,8.00
2023-05-25T02:58:39.701Z,8.67
2023-05-25T03:01:10.640Z,6.87
2023-05-25T03:03:38.941Z,9.07
2023-05-25T03:06:07.678Z,8.97
2023-05-25T03:08:35.767Z,8.30
2023-05-25T03:11:03.772Z,11.37
2023-05-25T03:13:31.816Z,9.57
2023-05-25T03:16:01.138Z,8.17
2023-05-25T03:18:29.235Z,8.47
2023-05-25T03:20:57.212Z,9.00
2023-05-25T03:23:25.224Z,12.07
2023-05-25T03:25:53.210Z,12.43
2023-05-25T03:28:21.192Z,11.83
2023-05-25T03:30:49.445Z,11.90
2023-05-25T03:33:18.828Z,10.53
2023-05-25T03:35:47.119Z,9.63
2023-05-25T03:38:15.333Z,8.33
2023-05-25T03:40:43.316Z,9.33
2023-05-25T03:43:11.276Z,7.63
2023-05-25T03:45:39.226Z,10.20
2023-05-25T03:48:07.689Z,12.53
2023-05-25T03:50:37.030Z,10.43
2023-05-25T03:53:05.059Z,10.87
2023-05-25T03:55:33.037Z,9.90
2023-05-25T03:58:01.012Z,11.70
2023-05-25T04:00:29.003Z,9.97
2023-05-25T04:02:58.804Z,13.67
2023-05-25T04:05:27.622Z,11.23
2023-05-25T04:07:57.585Z,9.27
2023-05-25T04:10:25.576Z,11.67
2023-05-25T04:12:56.635Z,8.77
2023-05-25T04:15:25.048Z,7.50
2023-05-25T04:17:53.128Z,9.73
2023-05-25T04:20:21.346Z,11.63
2023-05-25T04:22:50.032Z,13.30
2023-05-25T04:25:19.921Z,11.90
2023-05-25T04:27:49.011Z,15.47
2023-05-25T04:30:17.131Z,12.27
2023-05-25T04:32:46.582Z,10.60
2023-05-25T04:35:15.465Z,7.57
2023-05-25T04:37:43.496Z,11.73
2023-05-25T04:40:14.189Z,14.83
2023-05-25T04:42:44.954Z,11.63
2023-05-25T04:45:17.645Z,12.53
2023-05-25T04:47:45.961Z,12.57
2023-05-25T04:50:14.048Z,12.80
2023-05-25T04:52:42.029Z,12.10
2023-05-25T04:55:10.611Z,10.43
2023-05-25T04:57:38.602Z,12.30
2023-05-25T05:00:10.932Z,11.80
2023-05-25T05:02:38.986Z,14.23
2023-05-25T05:05:07.809Z,16.10
2023-05-25T05:07:35.986Z,12.17
2023-05-25T05:10:04.522Z,9.87
2023-05-25T05:12:32.486Z,15.53
2023-05-25T05:15:00.621Z,10.67
2023-05-25T05:17:31.119Z,15.70
2023-05-25T05:19:59.460Z,9.73
2023-05-25T05:22:27.513Z,14.40
2023-05-25T05:24:55.604Z,13.10
2023-05-25T05:27:23.609Z,9.17
2023-05-25T05:29:51.611Z,8.30
2023-05-25T05:32:19.662Z,9.87
2023-05-25T05:34:49.189Z,12.03
2023-05-25T05:37:17.270Z,12.77
2023-05-25T05:39:45.308Z,10.07
2023-05-25T05:42:13.318Z,15.10
2023-05-25T05:44:41.408Z,8.90
2023-05-25T05:47:09.564Z,9.23
2023-05-25T05:49:39.377Z,10.43
2023-05-25T05:52:10.872Z,10.03
2023-05-25T05:54:39.105Z,11.37
2023-05-25T05:57:07.622Z,10.53
2023-05-25T05:59:35.999Z,11.33
2023-05-25T06:02:04.409Z,9.93
2023-05-25T06:04:32.659Z,8.90
2023-05-25T06:07:00.840Z,9.80
2023-05-25T06:09:30.200Z,8.90
2023-05-25T06:11:58.160Z,8.13
2023-05-25T06:14:28.284Z,12.50
2023-05-25T06:16:56.809Z,12.27
2023-05-25T06:19:24.867Z,7.60
2023-05-25T06:21:52.835Z,8.70
2023-05-25T06:24:20.920Z,9.00
2023-05-25T06:26:50.650Z,10.70
2023-05-25T06:29:18.645Z,7.27
2023-05-25T06:31:46.868Z,7.97
2023-05-25T06:34:14.874Z,11.17
2023-05-25T06:36:42.845Z,8.83
2023-05-25T06:39:10.847Z,7.57
2023-05-25T06:41:40.458Z,10.43
2023-05-25T06:44:09.962Z,7.10
2023-05-25T06:46:39.260Z,7.47
2023-05-25T06:49:07.681Z,4.80
2023-05-25T06:51:35.734Z,12.10
2023-05-25T06:54:03.865Z,6.73
2023-05-25T06:56:31.821Z,8.13
2023-05-25T06:58:59.761Z,10.87
2023-05-25T07:01:29.147Z,8.40
2023-05-25T07:03:57.104Z,8.53
2023-05-25T07:06:25.288Z,6.80
2023-05-25T07:08:53.249Z,5.97
2023-05-25T07:11:22.078Z,8.80
2023-05-25T07:13:50.244Z,8.13
2023-05-25T07:16:18.342Z,5.63
2023-05-25T07:18:47.881Z,8.90
2023-05-25T07:21:15.842Z,8.80
2023-05-25T07:23:43.913Z,7.60
2023-05-25T07:26:12.080Z,8.53
2023-05-25T07:28:40.144Z,6.47
2023-05-25T07:31:08.223Z,8.97
2023-05-25T07:33:36.303Z,5.97
2023-05-25T07:36:06.297Z,8.67
2023-05-25T07:38:34.299Z,6.40
2023-05-25T07:41:02.294Z,9.80
2023-05-25T07:43:30.472Z,7.67
2023-05-25T07:45:59.081Z,6.63
2023-05-25T07:48:27.125Z,7.73
2023-05-25T07:50:56.273Z,7.10
2023-05-25T07:53:26.546Z,7.13
2023-05-25T07:55:54.690Z,9.10
2023-05-25T07:58:22.742Z,5.33
2023-05-25T08:00:51.796Z,5.87
2023-05-25T08:03:26.245Z,4.53
2023-05-25T08:06:00.192Z,8.57
2023-05-25T08:08:29.540Z,8.07
2023-05-25T08:10:57.564Z,8.77
2023-05-25T08:13:26.520Z,4.87
2023-05-25T08:15:54.540Z,8.70
2023-05-25T08:18:22.563Z,9.33
2023-05-25T08:20:50.648Z,5.57
2023-05-25T08:23:19.265Z,5.23
2023-05-25T08:25:48.868Z,4.03
2023-05-25T08:28:16.951Z,7.40
2023-05-25T08:30:46.613Z,6.60
2023-05-25T08:33:14.758Z,8.77
2023-05-25T08:35:43.617Z,5.50
2023-05-25T08:38:11.766Z,5.83
2023-05-25T08:40:43.747Z,8.40
2023-05-25T08:43:15.799Z,5.77
2023-05-25T08:45:47.250Z,8.47
2023-05-25T08:48:39.497Z,7.50
2023-05-25T08:51:10.754Z,5.20
2023-05-25T08:53:41.234Z,9.23
2023-05-25T08:56:14.893Z,9.13
2023-05-25T08:58:55.948Z,12.50
2023-05-25T09:01:37.323Z,10.50
2023-05-25T09:04:09.731Z,9.53
2023-05-25T09:06:38.741Z,10.70
2023-05-25T09:09:07.961Z,8.90
2023-05-25T09:11:39.963Z,9.27
2023-05-25T09:14:10.547Z,5.20
2023-05-25T09:16:39.899Z,7.87
2023-05-25T09:19:07.990Z,7.30
2023-05-25T09:21:36.889Z,5.47
2023-05-25T09:24:05.899Z,6.07
2023-05-25T09:26:34.916Z,5.87
2023-05-25T09:29:03.850Z,8.73
2023-05-25T09:31:35.469Z,8.47
2023-05-25T09:34:03.855Z,8.33
2023-05-25T09:36:32.412Z,9.83
2023-05-25T09:39:01.056Z,7.03
2023-05-25T09:41:29.938Z,6.37
2023-05-25T09:44:10.518Z,9.90
2023-05-25T09:46:41.676Z,9.03
2023-05-25T09:49:10.503Z,9.77
2023-05-25T09:51:38.909Z,9.73
2023-05-25T09:54:11.078Z,6.80
2023-05-25T09:56:39.125Z,8.33
2023-05-25T09:59:07.868Z,11.23
2023-05-25T10:01:36.760Z,12.47
2023-05-25T10:04:08.899Z,7.80
2023-05-25T10:06:39.641Z,6.30
2023-05-25T10:09:10.024Z,7.37
2023-05-25T10:11:44.464Z,11.80
2023-05-25T10:14:15.961Z,10.73
2023-05-25T10:16:46.961Z,10.07
2023-05-25T10:19:34.417Z,8.83
2023-05-25T10:22:08.255Z,8.07
2023-05-25T10:24:42.845Z,6.17
2023-05-25T10:27:26.346Z,9.30
2023-05-25T10:29:57.767Z,9.00
2023-05-25T10:32:26.723Z,11.90
2023-05-25T10:34:58.089Z,12.07
2023-05-25T10:37:28.635Z,10.30
2023-05-25T10:39:58.563Z,9.43
2023-05-25T10:42:27.957Z,9.20
2023-05-25T10:44:56.682Z,6.03
2023-05-25T10:47:25.373Z,7.30
2023-05-25T10:49:57.961Z,13.93
2023-05-25T10:52:29.768Z,6.43
2023-05-25T10:54:58.686Z,10.73
2023-05-25T10:57:27.289Z,7.97
2023-05-25T11:00:01.582Z,11.90
2023-05-25T11:02:30.345Z,9.47
2023-05-25T11:05:32.357Z,10.80
2023-05-25T11:08:03.109Z,9.43
2023-05-25T11:10:45.106Z,10.60
2023-05-25T11:13:40.939Z,10.77
2023-05-25T11:16:25.363Z,11.13
2023-05-25T11:18:57.446Z,11.67
2023-05-25T11:21:44.010Z,13.37
2023-05-25T11:24:18.425Z,14.20
2023-05-25T11:27:00.949Z,13.73
2023-05-25T11:29:33.108Z,12.80
2023-05-25T11:32:01.260Z,16.83
2023-05-25T11:34:32.033Z,15.90
2023-05-25T11:37:02.517Z,8.37
2023-05-25T11:39:32.683Z,12.57
2023-05-25T11:42:06.729Z,15.27
2023-05-25T11:44:36.968Z,13.83
2023-05-25T11:47:09.981Z,13.20
2023-05-25T11:49:41.742Z,10.03
2023-05-25T11:52:10.524Z,11.37
2023-05-25T11:54:41.941Z,12.13
2023-05-25T11:57:25.008Z,12.93
2023-05-25T11:59:54.678Z,12.30
2023-05-25T12:02:23.477Z,10.47
2023-05-25T12:04:56.134Z,11.33
2023-05-25T12:07:24.940Z,14.50
2023-05-25T12:10:05.108Z,9.87
2023-05-25T12:12:39.551Z,11.27
2023-05-25T12:15:08.981Z,10.67
2023-05-25T12:17:37.450Z,14.77
2023-05-25T12:20:07.638Z,11.33
2023-05-25T12:22:36.100Z,12.00
2023-05-25T12:25:06.976Z,10.03
2023-05-25T12:27:35.245Z,14.63
2023-05-25T12:30:03.393Z,12.43
2023-05-25T12:32:31.554Z,9.87
2023-05-25T12:35:06.834Z,11.37
2023-05-25T12:37:35.198Z,10.97
2023-05-25T12:40:03.563Z,10.73
2023-05-25T12:42:34.387Z,13.63
2023-05-25T12:45:02.441Z,13.97
2023-05-25T12:47:32.281Z,12.30
2023-05-25T12:50:14.681Z,10.50
2023-05-25T12:52:44.376Z,12.37
2023-05-25T12:55:25.687Z,12.40
2023-05-25T12:57:55.805Z,12.33
2023-05-25T13:00:25.611Z,8.47
2023-05-25T13:02:54.619Z,16.60
2023-05-25T13:05:24.210Z,14.03
2023-05-25T13:07:53.102Z,14.73
2023-05-25T13:10:21.362Z,10.60
2023-05-25T13:12:50.945Z,16.37
2023-05-25T13:15:22.042Z,13.53
2023-05-25T13:17:51.572Z,12.40
2023-05-25T13:20:21.556Z,11.63
2023-05-25T13:22:51.248Z,13.63
2023-05-25T13:25:21.933Z,13.30
2023-05-25T13:27:51.536Z,14.97
2023-05-25T13:30:22.215Z,19.43
2023-05-25T13:32:51.924Z,11.13
2023-05-25T13:35:34.148Z,11.73
2023-05-25T13:38:02.299Z,14.07
2023-05-25T13:40:30.341Z,13.80
2023-05-25T13:42:58.377Z,13.23
2023-05-25T13:45:28.176Z,11.43
2023-05-25T13:47:56.300Z,15.50
2023-05-25T13:50:24.400Z,14.43
2023-05-25T13:52:52.977Z,13.47
2023-05-25T13:55:21.048Z,14.10
2023-05-25T13:57:49.034Z,18.70
2023-05-25T14:00:17.439Z,15.10
2023-05-25T14:02:46.818Z,13.77
2023-05-25T14:05:14.895Z,16.33
2023-05-25T14:07:44.527Z,12.73
2023-05-25T14:10:13.212Z,16.00
2023-05-25T14:12:42.216Z,16.60
2023-05-25T14:15:11.187Z,15.33
2023-05-25T14:17:39.351Z,15.77
2023-05-25T14:20:09.920Z,14.53
2023-05-25T14:22:37.940Z,11.40
2023-05-25T14:25:06.828Z,13.70
2023-05-25T14:27:34.847Z,16.20
2023-05-25T14:30:02.823Z,15.07
2023-05-25T14:32:30.834Z,13.07
2023-05-25T14:34:58.804Z,12.67
2023-05-25T14:37:28.150Z,16.80
2023-05-25T14:39:56.103Z,14.60
2023-05-25T14:42:24.128Z,13.70
2023-05-25T14:44:52.173Z,12.73
2023-05-25T14:47:20.283Z,17.03
2023-05-25T14:49:48.423Z,14.17
2023-05-25T14:52:16.538Z,14.57
2023-05-25T14:54:45.955Z,15.77
2023-05-25T14:57:16.198Z,13.33
2023-05-25T14:59:44.365Z,20.00
2023-05-25T15:02:12.415Z,15.13
2023-05-25T15:04:40.470Z,13.03
2023-05-25T15:07:08.840Z,13.43
2023-05-25T15:09:37.699Z,14.80
2023-05-25T15:12:08.068Z,12.63
2023-05-25T15:14:39.868Z,15.33
2023-05-25T15:17:08.079Z,15.20
2023-05-25T15:19:36.050Z,16.13
2023-05-25T15:22:04.193Z,15.07
2023-05-25T15:24:32.191Z,15.03
2023-05-25T15:27:00.214Z,12.63
2023-05-25T15:29:29.575Z,11.83
2023-05-25T15:31:57.596Z,16.40
2023-05-25T15:34:25.641Z,12.73
2023-05-25T15:36:53.616Z,15.90
2023-05-25T15:39:21.630Z,14.87
2023-05-25T15:41:49.647Z,16.33
2023-05-25T15:44:17.623Z,16.23
2023-05-25T15:46:46.971Z,13.33
2023-05-25T15:49:15.062Z,12.10
2023-05-25T15:51:44.415Z,13.73
2023-05-25T15:54:14.688Z,15.07
2023-05-25T15:56:42.998Z,16.37
2023-05-25T15:59:12.293Z,14.20
2023-05-25T16:01:40.645Z,12.30
2023-05-25T16:04:10.323Z,16.87
2023-05-25T16:06:38.548Z,16.40
2023-05-25T16:09:06.759Z,14.30
2023-05-25T16:11:34.825Z,15.67
2023-05-25T16:14:02.889Z,16.20
2023-05-25T16:16:30.983Z,18.73
2023-05-25T16:18:59.296Z,15.03
2023-05-25T16:21:28.799Z,21.80
2023-05-25T16:23:56.908Z,14.90
2023-05-25T16:26:24.908Z,15.60
2023-05-25T16:28:54.017Z,17.33
2023-05-25T16:31:22.110Z,16.10
2023-05-25T16:33:50.176Z,18.03
2023-05-25T16:36:18.180Z,19.13
2023-05-25T16:38:47.536Z,19.13
2023-05-25T16:41:15.528Z,14.90
2023-05-25T16:43:43.559Z,15.70
2023-05-25T16:46:11.633Z,16.00
2023-05-25T16:48:39.646Z,18.63
2023-05-25T16:51:08.227Z,18.83
2023-05-25T16:53:36.220Z,17.13
2023-05-25T16:56:05.956Z,16.53
2023-05-25T16:58:34.000Z,15.20
2023-05-25T17:01:02.035Z,18.67
2023-05-25T17:03:30.175Z,15.73
2023-05-25T17:05:58.203Z,13.97
2023-05-25T17:08:26.367Z,15.40
2023-05-25T17:10:54.407Z,19.57
2023-05-25T17:13:23.814Z,14.20
2023-05-25T17:15:51.864Z,18.50
2023-05-25T17:18:19.848Z,14.63
2023-05-25T17:20:47.884Z,19.87
2023-05-25T17:23:17.029Z,15.93
2023-05-25T17:25:45.250Z,15.37
2023-05-25T17:28:13.331Z,15.67
2023-05-25T17:30:42.695Z,15.47
2023-05-25T17:33:10.706Z,14.50
2023-05-25T17:35:38.732Z,19.13
2023-05-25T17:38:06.919Z,17.70
2023-05-25T17:40:34.937Z,13.40
2023-05-25T17:43:02.964Z,17.97
2023-05-25T17:45:31.087Z,14.67
2023-05-25T17:48:00.532Z,13.67
2023-05-25T17:50:28.855Z,13.77
2023-05-25T17:52:56.961Z,13.57
2023-05-25T17:55:24.953Z,15.63
2023-05-25T17:57:52.887Z,19.43
2023-05-25T18:00:23.071Z,15.97
2023-05-25T18:02:51.930Z,15.13
2023-05-25T18:05:21.556Z,18.60
2023-05-25T18:07:49.543Z,19.47
2023-05-25T18:10:17.607Z,16.50
2023-05-25T18:12:46.211Z,13.37
2023-05-25T18:15:14.277Z,15.13
2023-05-25T18:17:42.346Z,17.27
2023-05-25T18:20:11.516Z,18.23
2023-05-25T18:22:41.368Z,16.90
2023-05-25T18:25:10.138Z,12.43
2023-05-25T18:27:38.150Z,17.70
2023-05-25T18:30:07.225Z,16.63
2023-05-25T18:32:35.242Z,14.90
2023-05-25T18:35:03.664Z,20.30
2023-05-25T18:37:34.322Z,17.23
2023-05-25T18:40:03.761Z,10.20
2023-05-25T18:42:31.846Z,17.30
2023-05-25T18:44:59.881Z,18.63
2023-05-25T18:47:27.937Z,20.53
2023-05-25T18:49:56.288Z,24.20
2023-05-25T18:52:24.430Z,17.97
2023-05-25T18:54:52.446Z,20.53
2023-05-25T18:57:21.819Z,15.67
2023-05-25T18:59:49.853Z,18.00
2023-05-25T19:02:17.945Z,15.57
2023-05-25T19:04:45.946Z,12.50
2023-05-25T19:07:14.183Z,13.43
2023-05-25T19:09:42.292Z,10.30
2023-05-25T19:12:10.303Z,18.03
2023-05-25T19:14:39.638Z,12.60
2023-05-25T19:17:07.765Z,18.40
2023-05-25T19:19:36.014Z,15.60
2023-05-25T19:22:04.028Z,13.70
2023-05-25T19:24:32.000Z,14.60
2023-05-25T19:27:00.070Z,13.37
2023-05-25T19:29:28.103Z,18.07
2023-05-25T19:31:57.509Z,14.87
2023-05-25T19:34:25.546Z,20.43
2023-05-25T19:36:59.998Z,17.43
2023-05-25T19:39:38.473Z,17.73
2023-05-25T19:42:09.433Z,17.73
2023-05-25T19:44:40.482Z,12.77
2023-05-25T19:47:10.079Z,16.63
2023-05-25T19:49:38.057Z,17.07
2023-05-25T19:52:06.755Z,14.10
2023-05-25T19:54:34.854Z,15.97
2023-05-25T19:57:03.003Z,13.43
2023-05-25T19:59:31.456Z,19.07
2023-05-25T20:02:01.682Z,13.43
2023-05-25T20:04:38.622Z,17.33
2023-05-25T20:07:07.983Z,13.37
2023-05-25T20:09:38.557Z,12.37
2023-05-25T20:12:07.556Z,12.10
2023-05-25T20:14:35.553Z,15.47
2023-05-25T20:17:03.838Z,15.00
2023-05-25T20:19:33.202Z,15.10
2023-05-25T20:22:01.818Z,17.17
2023-05-25T20:24:29.794Z,13.13
2023-05-25T20:26:57.853Z,20.23
2023-05-25T20:29:25.860Z,15.30
2023-05-25T20:31:54.377Z,20.33
2023-05-25T20:34:22.445Z,21.30
2023-05-25T20:36:51.770Z,19.50
2023-05-25T20:39:20.195Z,17.93
2023-05-25T20:41:48.113Z,14.10
2023-05-25T20:44:16.191Z,15.23
2023-05-25T20:46:44.261Z,16.57
2023-05-25T20:49:12.297Z,15.87
2023-05-25T20:51:40.307Z,20.40
2023-05-25T20:54:09.804Z,12.63
2023-05-25T20:56:37.796Z,18.93
2023-05-25T20:59:05.805Z,15.77
2023-05-25T21:01:33.821Z,13.80
2023-05-25T21:04:02.071Z,18.33
2023-05-25T21:06:30.222Z,20.30
2023-05-25T21:08:58.235Z,17.77
2023-05-25T21:11:28.515Z,19.13
2023-05-25T21:13:56.878Z,14.63
2023-05-25T21:16:25.003Z,16.53
2023-05-25T21:18:53.024Z,14.67
2023-05-25T21:21:21.130Z,17.40
2023-05-25T21:23:49.174Z,18.93
2023-05-25T21:26:17.271Z,24.80
2023-05-25T21:28:46.679Z,22.30
2023-05-25T21:31:14.736Z,21.37
2023-05-25T21:33:42.746Z,23.90
2023-05-25T21:36:10.771Z,17.73
2023-05-25T21:38:38.728Z,18.77
2023-05-25T21:41:07.087Z,17.67
2023-05-25T21:43:35.124Z,17.30
2023-05-25T21:46:04.659Z,16.97
2023-05-25T21:48:32.607Z,18.77
2023-05-25T21:51:00.660Z,19.27
2023-05-25T21:53:28.664Z,17.17
2023-05-25T21:55:56.681Z,18.60
2023-05-25T21:58:24.680Z,17.17
2023-05-25T22:00:52.855Z,19.50
2023-05-25T22:03:22.339Z,16.23
2023-05-25T22:05:50.314Z,16.93
2023-05-25T22:08:18.329Z,21.87
2023-05-25T22:10:46.411Z,22.67
2023-05-25T22:13:14.431Z,18.23
2023-05-25T22:15:42.479Z,15.80
2023-05-25T22:18:10.721Z,14.77
2023-05-25T22:20:42.064Z,13.67
2023-05-25T22:23:12.847Z,15.63
2023-05-25T22:25:41.365Z,19.30
2023-05-25T22:28:09.515Z,22.00
2023-05-25T22:30:37.533Z,20.83
2023-05-25T22:33:05.589Z,13.00
2023-05-25T22:35:33.579Z,17.93
2023-05-25T22:38:02.910Z,16.60
2023-05-25T22:40:30.933Z,15.87
2023-05-25T22:42:58.979Z,20.67
2023-05-25T22:45:27.412Z,19.57
2023-05-25T22:47:55.482Z,15.30
2023-05-25T22:50:23.515Z,21.50
2023-05-25T22:52:51.546Z,18.83
2023-05-25T22:55:21.601Z,13.07
2023-05-25T22:57:49.606Z,22.03
2023-05-25T23:00:18.086Z,20.73
2023-05-25T23:02:46.184Z,19.93
2023-05-25T23:05:14.242Z,16.90
2023-05-25T23:07:43.703Z,20.23
2023-05-25T23:10:12.296Z,22.30
2023-05-25T23:12:41.875Z,18.83
2023-05-25T23:15:11.063Z,14.07
2023-05-25T23:17:39.066Z,19.80
2023-05-25T23:20:09.273Z,18.50
2023-05-25T23:22:37.323Z,21.27
2023-05-25T23:25:05.765Z,20.90
2023-05-25T23:27:33.776Z,18.67
2023-05-25T23:30:03.152Z,15.20
2023-05-25T23:32:31.267Z,18.17
2023-05-25T23:34:59.342Z,19.63
2023-05-25T23:37:28.282Z,16.43
2023-05-25T23:39:56.376Z,16.40
2023-05-25T23:42:24.348Z,19.03
2023-05-25T23:44:52.356Z,15.67
2023-05-25T23:47:21.638Z,22.63
2023-05-25T23:49:49.629Z,18.03
2023-05-25T23:52:17.678Z,17.50
2023-05-25T23:54:45.683Z,19.37
2023-05-25T23:57:13.727Z,18.43
2023-05-25T23:59:41.722Z,21.57
